KENV

Details ICAO KENV (ENV)
Name Wendover
Region United States
Timezone America/Denver (UTC-7.0)
Plans Departing 8
Arriving 16
Stats Elevation 4,237 ft / 1,291 m (AMSL)
Location 40.718696° -114.030890°
Runways 2
Magnetic Variation 12.148° E
Sunrise 2017-12-12 14:52:31 UTC / 2017-12-12 07:52:31 Local
Sunset 2017-12-13 00:10:21 UTC / 2017-12-12 17:10:21 Local
Advertisement - Login to hide

Runways

ID Width Length Bearing (true) Bearing (mag) Surface Threshold Offset Overrun Length
08 150 ft / 46 m 7,980 ft / 2,432 m 89.96° 77.81° Asphalt 0 ft / 0 m 100 ft / 30 m
12 100 ft / 30 m 7,997 ft / 2,438 m 135.07° 122.92° Asphalt 0 ft / 0 m 30 ft / 9 m
26 150 ft / 46 m 7,980 ft / 2,432 m 269.98° 257.83° Asphalt 0 ft / 0 m 100 ft / 30 m
30 100 ft / 30 m 7,997 ft / 2,438 m 315.08° 302.93° Asphalt 0 ft / 0 m 300 ft / 91 m

Map

Weather


0- 5 10 15 20 25 30 35+ Temperature / ° C

Clouds and Precipitation
Forecast for 2017-12-13 06:00 UTC. Updated an hour ago

Ground ~20,000 ft ~40,000 ft Winds

METAR

KENV 130256Z AUTO 00000KT 9SM CLR M09/M11 A3044 RMK AO2 SLP373 T10891111 58005 FZRANO

TAF

KENV 122341Z 1300/1324 10005KT P6SM SCT003 FM130800 VRB03KT 2SM BR BCFG OVC003 FM131800 VRB06KT P6SM SCT003 SCT100

Frequencies

Recorded 135.07 MHz AWOS 3
Unicom 122.80 MHz CTAF/UNICOM
Warning: Do not use this data for real-world aviation or navigation. No guarantee of current accuracy is given.